sensor_id;sensor_type;location;lat;lon;timestamp;pressure;altitude;pressure_sealevel;temperature;humidity
67457;BME280;54319;52.038;4.640;2023-05-29T00:01:26;102539.34;;;11.26;86.92
67457;BME280;54319;52.038;4.640;2023-05-29T00:03:53;102534.59;;;11.20;87.04
67457;BME280;54319;52.038;4.640;2023-05-29T00:06:19;102538.00;;;11.22;87.21
67457;BME280;54319;52.038;4.640;2023-05-29T00:08:47;102530.84;;;11.21;86.92
67457;BME280;54319;52.038;4.640;2023-05-29T00:11:14;102533.91;;;11.18;88.08
67457;BME280;54319;52.038;4.640;2023-05-29T00:13:41;102526.75;;;11.17;87.72
67457;BME280;54319;52.038;4.640;2023-05-29T00:16:07;102502.56;;;10.97;87.38
67457;BME280;54319;52.038;4.640;2023-05-29T00:18:35;102503.94;;;10.93;87.75
67457;BME280;54319;52.038;4.640;2023-05-29T00:21:01;102520.31;;;11.01;87.90
67457;BME280;54319;52.038;4.640;2023-05-29T00:23:28;102523.72;;;11.03;88.49
67457;BME280;54319;52.038;4.640;2023-05-29T00:25:56;102523.06;;;11.01;88.48
67457;BME280;54319;52.038;4.640;2023-05-29T00:28:23;102524.06;;;11.00;88.40
67457;BME280;54319;52.038;4.640;2023-05-29T00:30:50;102520.97;;;10.95;89.35
67457;BME280;54319;52.038;4.640;2023-05-29T00:33:16;102527.13;;;10.97;88.56
67457;BME280;54319;52.038;4.640;2023-05-29T00:35:43;102523.94;;;10.85;88.88
67457;BME280;54319;52.038;4.640;2023-05-29T00:38:10;102534.16;;;10.91;89.23
67457;BME280;54319;52.038;4.640;2023-05-29T00:40:37;102543.72;;;10.87;89.37
67457;BME280;54319;52.038;4.640;2023-05-29T00:43:05;102546.78;;;10.84;89.56
67457;BME280;54319;52.038;4.640;2023-05-29T00:45:31;102546.94;;;10.82;89.51
67457;BME280;54319;52.038;4.640;2023-05-29T00:48:01;102554.47;;;10.80;89.57
67457;BME280;54319;52.038;4.640;2023-05-29T00:50:28;102552.41;;;10.74;89.80
67457;BME280;54319;52.038;4.640;2023-05-29T00:52:55;102558.91;;;10.65;89.88
67457;BME280;54319;52.038;4.640;2023-05-29T00:55:22;102559.75;;;10.74;90.45
67457;BME280;54319;52.038;4.640;2023-05-29T00:57:50;102556.19;;;10.73;90.02
67457;BME280;54319;52.038;4.640;2023-05-29T01:00:19;102558.56;;;10.76;90.61
67457;BME280;54319;52.038;4.640;2023-05-29T01:02:47;102564.69;;;10.78;90.05
67457;BME280;54319;52.038;4.640;2023-05-29T01:05:16;102571.88;;;10.79;90.51
67457;BME280;54319;52.038;4.640;2023-05-29T01:07:44;102555.31;;;10.73;89.85
67457;BME280;54319;52.038;4.640;2023-05-29T01:10:11;102568.13;;;10.80;89.93
67457;BME280;54319;52.038;4.640;2023-05-29T01:12:41;102567.97;;;10.82;90.02
67457;BME280;54319;52.038;4.640;2023-05-29T01:15:28;102572.38;;;10.83;90.01
67457;BME280;54319;52.038;4.640;2023-05-29T01:18:07;102573.22;;;10.83;89.71
67457;BME280;54319;52.038;4.640;2023-05-29T01:20:39;102571.19;;;10.85;89.29
67457;BME280;54319;52.038;4.640;2023-05-29T01:23:23;102559.25;;;10.78;89.92
67457;BME280;54319;52.038;4.640;2023-05-29T01:26:07;102580.03;;;10.88;89.24
67457;BME280;54319;52.038;4.640;2023-05-29T01:28:41;102571.69;;;10.89;89.50
67457;BME280;54319;52.038;4.640;2023-05-29T01:31:09;102583.31;;;10.83;88.72
67457;BME280;54319;52.038;4.640;2023-05-29T01:33:39;102584.16;;;10.83;88.53
67457;BME280;54319;52.038;4.640;2023-05-29T01:36:07;102573.41;;;10.82;89.18
67457;BME280;54319;52.038;4.640;2023-05-29T01:38:33;102576.97;;;10.82;88.62
67457;BME280;54319;52.038;4.640;2023-05-29T01:41:01;102589.94;;;10.80;88.57
67457;BME280;54319;52.038;4.640;2023-05-29T01:43:29;102575.97;;;10.75;88.41
67457;BME280;54319;52.038;4.640;2023-05-29T01:45:57;102556.69;;;10.60;88.75
67457;BME280;54319;52.038;4.640;2023-05-29T01:48:24;102578.84;;;10.65;88.63
67457;BME280;54319;52.038;4.640;2023-05-29T01:50:51;102589.63;;;10.67;88.87
67457;BME280;54319;52.038;4.640;2023-05-29T01:53:18;102596.25;;;10.64;89.37
67457;BME280;54319;52.038;4.640;2023-05-29T01:55:45;102594.75;;;10.62;89.03
67457;BME280;54319;52.038;4.640;2023-05-29T01:58:12;102602.06;;;10.61;88.87
67457;BME280;54319;52.038;4.640;2023-05-29T02:00:40;102564.47;;;10.38;88.98
67457;BME280;54319;52.038;4.640;2023-05-29T02:03:09;102612.13;;;10.61;89.07
67457;BME280;54319;52.038;4.640;2023-05-29T02:05:35;102607.66;;;10.60;89.33
67457;BME280;54319;52.038;4.640;2023-05-29T02:08:02;102608.88;;;10.57;89.39
67457;BME280;54319;52.038;4.640;2023-05-29T02:10:28;102613.84;;;10.62;89.78
67457;BME280;54319;52.038;4.640;2023-05-29T02:12:57;102612.13;;;10.61;89.17
67457;BME280;54319;52.038;4.640;2023-05-29T02:15:23;102613.84;;;10.62;89.51
67457;BME280;54319;52.038;4.640;2023-05-29T02:17:50;102611.13;;;10.62;89.30
67457;BME280;54319;52.038;4.640;2023-05-29T02:20:18;102617.59;;;10.61;89.36
67457;BME280;54319;52.038;4.640;2023-05-29T02:22:45;102614.53;;;10.64;89.28
67457;BME280;54319;52.038;4.640;2023-05-29T02:25:12;102613.50;;;10.65;89.79
67457;BME280;54319;52.038;4.640;2023-05-29T02:27:38;102604.28;;;10.66;89.41
67457;BME280;54319;52.038;4.640;2023-05-29T02:30:06;102596.94;;;10.58;88.99
67457;BME280;54319;52.038;4.640;2023-05-29T02:32:33;102606.00;;;10.67;88.90
67457;BME280;54319;52.038;4.640;2023-05-29T02:35:00;102587.56;;;10.61;88.36
67457;BME280;54319;52.038;4.640;2023-05-29T02:37:28;102602.25;;;10.68;88.83
67457;BME280;54319;52.038;4.640;2023-05-29T02:39:55;102601.56;;;10.66;89.10
67457;BME280;54319;52.038;4.640;2023-05-29T02:42:21;102575.94;;;10.50;89.08
67457;BME280;54319;52.038;4.640;2023-05-29T02:44:48;102603.94;;;10.69;88.93
67457;BME280;54319;52.038;4.640;2023-05-29T02:47:15;102602.06;;;10.69;89.08
67457;BME280;54319;52.038;4.640;2023-05-29T02:49:42;102604.28;;;10.74;89.33
67457;BME280;54319;52.038;4.640;2023-05-29T02:52:08;102603.94;;;10.77;88.94
67457;BME280;54319;52.038;4.640;2023-05-29T02:54:36;102608.03;;;10.81;88.35
67457;BME280;54319;52.038;4.640;2023-05-29T02:57:03;102597.97;;;10.82;87.67
67457;BME280;54319;52.038;4.640;2023-05-29T02:59:30;102602.91;;;10.78;87.68
67457;BME280;54319;52.038;4.640;2023-05-29T03:01:58;102602.91;;;10.78;88.13
67457;BME280;54319;52.038;4.640;2023-05-29T03:04:24;102585.84;;;10.60;87.47
67457;BME280;54319;52.038;4.640;2023-05-29T03:06:51;102609.22;;;10.79;87.15
67457;BME280;54319;52.038;4.640;2023-05-29T03:09:18;102607.00;;;10.82;87.44
67457;BME280;54319;52.038;4.640;2023-05-29T03:11:46;102610.75;;;10.81;87.14
67457;BME280;54319;52.038;4.640;2023-05-29T03:14:15;102613.84;;;10.86;87.47
67457;BME280;54319;52.038;4.640;2023-05-29T03:16:42;102617.59;;;10.85;87.09
67457;BME280;54319;52.038;4.640;2023-05-29T03:19:09;102617.44;;;10.87;87.48
67457;BME280;54319;52.038;4.640;2023-05-29T03:21:35;102612.66;;;10.89;87.21
67457;BME280;54319;52.038;4.640;2023-05-29T03:24:02;102603.59;;;10.89;86.95
67457;BME280;54319;52.038;4.640;2023-05-29T03:26:29;102564.19;;;10.58;86.76
67457;BME280;54319;52.038;4.640;2023-05-29T03:28:57;102605.84;;;10.85;86.51
67457;BME280;54319;52.038;4.640;2023-05-29T03:31:23;102587.56;;;10.69;86.05
67457;BME280;54319;52.038;4.640;2023-05-29T03:33:50;102610.09;;;10.79;85.64
67457;BME280;54319;52.038;4.640;2023-05-29T03:36:17;102593.88;;;10.78;86.53
67457;BME280;54319;52.038;4.640;2023-05-29T03:38:44;102600.69;;;10.74;85.82
67457;BME280;54319;52.038;4.640;2023-05-29T03:41:11;102601.56;;;10.74;85.83
67457;BME280;54319;52.038;4.640;2023-05-29T03:43:37;102600.34;;;10.68;85.28
67457;BME280;54319;52.038;4.640;2023-05-29T03:46:05;102611.78;;;10.72;85.36
67457;BME280;54319;52.038;4.640;2023-05-29T03:48:32;102606.34;;;10.72;85.29
67457;BME280;54319;52.038;4.640;2023-05-29T03:50:58;102618.97;;;10.65;84.97
67457;BME280;54319;52.038;4.640;2023-05-29T03:53:25;102621.00;;;10.63;85.71
67457;BME280;54319;52.038;4.640;2023-05-29T03:55:52;102622.19;;;10.60;84.96
67457;BME280;54319;52.038;4.640;2023-05-29T03:58:18;102621.66;;;10.56;84.99
67457;BME280;54319;52.038;4.640;2023-05-29T04:00:45;102622.34;;;10.59;85.04
67457;BME280;54319;52.038;4.640;2023-05-29T04:03:13;102624.56;;;10.55;84.58
67457;BME280;54319;52.038;4.640;2023-05-29T04:05:40;102631.19;;;10.52;84.75
67457;BME280;54319;52.038;4.640;2023-05-29T04:08:07;102625.41;;;10.47;84.75
67457;BME280;54319;52.038;4.640;2023-05-29T04:10:34;102621.97;;;10.45;84.72
67457;BME280;54319;52.038;4.640;2023-05-29T04:13:02;102619.22;;;10.37;83.72
67457;BME280;54319;52.038;4.640;2023-05-29T04:15:28;102640.03;;;10.38;83.64
67457;BME280;54319;52.038;4.640;2023-05-29T04:17:55;102639.34;;;10.36;84.39
67457;BME280;54319;52.038;4.640;2023-05-29T04:20:23;102632.16;;;10.35;84.05
67457;BME280;54319;52.038;4.640;2023-05-29T04:22:50;102637.44;;;10.36;83.92
67457;BME280;54319;52.038;4.640;2023-05-29T04:25:17;102641.19;;;10.35;83.66
67457;BME280;54319;52.038;4.640;2023-05-29T04:27:44;102602.28;;;10.08;84.04
67457;BME280;54319;52.038;4.640;2023-05-29T04:30:14;102637.28;;;10.30;82.83
67457;BME280;54319;52.038;4.640;2023-05-29T04:32:41;102643.09;;;10.35;82.64
67457;BME280;54319;52.038;4.640;2023-05-29T04:35:08;102648.91;;;10.40;82.63
67457;BME280;54319;52.038;4.640;2023-05-29T04:37:37;102649.91;;;10.39;82.84
67457;BME280;54319;52.038;4.640;2023-05-29T04:40:05;102639.13;;;10.29;82.58
67457;BME280;54319;52.038;4.640;2023-05-29T04:42:34;102655.22;;;10.40;82.49
67457;BME280;54319;52.038;4.640;2023-05-29T04:45:01;102658.31;;;10.46;82.79
67457;BME280;54319;52.038;4.640;2023-05-29T04:47:27;102653.72;;;10.46;82.18
67457;BME280;54319;52.038;4.640;2023-05-29T04:49:54;102659.84;;;10.48;82.34
67457;BME280;54319;52.038;4.640;2023-05-29T04:52:21;102660.53;;;10.50;81.63
67457;BME280;54319;52.038;4.640;2023-05-29T04:54:48;102634.25;;;10.41;81.13
67457;BME280;54319;52.038;4.640;2023-05-29T04:57:16;102647.91;;;10.49;81.55
67457;BME280;54319;52.038;4.640;2023-05-29T04:59:42;102648.44;;;10.53;81.07
67457;BME280;54319;52.038;4.640;2023-05-29T05:02:09;102669.06;;;10.55;80.82
67457;BME280;54319;52.038;4.640;2023-05-29T05:04:36;102671.97;;;10.54;81.18
67457;BME280;54319;52.038;4.640;2023-05-29T05:07:05;102671.66;;;10.57;81.26
67457;BME280;54319;52.038;4.640;2023-05-29T05:09:32;102658.84;;;10.57;80.49
67457;BME280;54319;52.038;4.640;2023-05-29T05:12:00;102641.09;;;10.45;79.82
67457;BME280;54319;52.038;4.640;2023-05-29T05:14:27;102666.19;;;10.57;80.38
67457;BME280;54319;52.038;4.640;2023-05-29T05:16:53;102670.44;;;10.60;80.48
67457;BME280;54319;52.038;4.640;2023-05-29T05:19:20;102667.56;;;10.61;80.76
67457;BME280;54319;52.038;4.640;2023-05-29T05:21:47;102662.09;;;10.61;80.86
67457;BME280;54319;52.038;4.640;2023-05-29T05:24:13;102675.25;;;10.66;80.13
67457;BME280;54319;52.038;4.640;2023-05-29T05:26:40;102674.72;;;10.62;81.15
67457;BME280;54319;52.038;4.640;2023-05-29T05:29:08;102670.97;;;10.71;80.32
67457;BME280;54319;52.038;4.640;2023-05-29T05:31:35;102676.78;;;10.77;79.91
67457;BME280;54319;52.038;4.640;2023-05-29T05:34:01;102664.50;;;10.73;79.85
67457;BME280;54319;52.038;4.640;2023-05-29T05:36:28;102652.91;;;10.70;79.70
67457;BME280;54319;52.038;4.640;2023-05-29T05:38:54;102674.91;;;10.85;79.34
67457;BME280;54319;52.038;4.640;2023-05-29T05:41:21;102675.59;;;10.96;79.63
67457;BME280;54319;52.038;4.640;2023-05-29T05:43:48;102674.94;;;11.02;78.90
67457;BME280;54319;52.038;4.640;2023-05-29T05:46:16;102674.75;;;11.12;78.69
67457;BME280;54319;52.038;4.640;2023-05-29T05:48:43;102681.09;;;11.21;77.56
67457;BME280;54319;52.038;4.640;2023-05-29T05:51:09;102670.16;;;11.21;76.99
67457;BME280;54319;52.038;4.640;2023-05-29T05:53:37;102680.19;;;11.45;78.61
67457;BME280;54319;52.038;4.640;2023-05-29T05:56:04;102658.53;;;11.43;76.57
67457;BME280;54319;52.038;4.640;2023-05-29T05:58:30;102664.63;;;11.62;76.44
67457;BME280;54319;52.038;4.640;2023-05-29T06:00:57;102679.44;;;11.84;75.78
67457;BME280;54319;52.038;4.640;2023-05-29T06:03:26;102678.88;;;11.97;75.16
67457;BME280;54319;52.038;4.640;2023-05-29T06:05:52;102677.53;;;12.01;74.61
67457;BME280;54319;52.038;4.640;2023-05-29T06:08:19;102690.44;;;12.24;74.30
67457;BME280;54319;52.038;4.640;2023-05-29T06:10:46;102694.13;;;12.40;75.41
67457;BME280;54319;52.038;4.640;2023-05-29T06:13:13;102694.41;;;12.53;73.73
67457;BME280;54319;52.038;4.640;2023-05-29T06:15:40;102698.22;;;12.67;73.79
67457;BME280;54319;52.038;4.640;2023-05-29T06:18:06;102697.34;;;12.75;72.89
67457;BME280;54319;52.038;4.640;2023-05-29T06:20:34;102698.69;;;12.79;72.33
67457;BME280;54319;52.038;4.640;2023-05-29T06:23:01;102667.50;;;12.80;72.96
67457;BME280;54319;52.038;4.640;2023-05-29T06:25:28;102691.31;;;13.03;73.26
67457;BME280;54319;52.038;4.640;2023-05-29T06:27:58;102694.50;;;13.15;72.28
67457;BME280;54319;52.038;4.640;2023-05-29T06:30:25;102685.41;;;13.14;71.29
67457;BME280;54319;52.038;4.640;2023-05-29T06:32:51;102692.34;;;13.25;71.22
67457;BME280;54319;52.038;4.640;2023-05-29T06:35:18;102692.16;;;13.27;70.40
67457;BME280;54319;52.038;4.640;2023-05-29T06:37:46;102681.50;;;13.32;70.77
67457;BME280;54319;52.038;4.640;2023-05-29T06:40:13;102685.28;;;13.31;69.75
67457;BME280;54319;52.038;4.640;2023-05-29T06:42:40;102695.28;;;13.39;69.53
67457;BME280;54319;52.038;4.640;2023-05-29T06:45:10;102697.13;;;13.46;70.52
67457;BME280;54319;52.038;4.640;2023-05-29T06:47:38;102685.41;;;13.53;70.54
67457;BME280;54319;52.038;4.640;2023-05-29T06:50:06;102697.34;;;13.60;69.49
67457;BME280;54319;52.038;4.640;2023-05-29T06:52:32;102694.22;;;13.63;70.18
67457;BME280;54319;52.038;4.640;2023-05-29T06:55:01;102703.16;;;13.65;68.66
67457;BME280;54319;52.038;4.640;2023-05-29T06:57:27;102700.31;;;13.73;68.76
67457;BME280;54319;52.038;4.640;2023-05-29T06:59:54;102708.81;;;13.79;68.01
67457;BME280;54319;52.038;4.640;2023-05-29T07:02:21;102703.63;;;13.84;67.62
67457;BME280;54319;52.038;4.640;2023-05-29T07:04:47;102708.56;;;13.88;68.01
67457;BME280;54319;52.038;4.640;2023-05-29T07:07:14;102714.78;;;13.97;67.10
67457;BME280;54319;52.038;4.640;2023-05-29T07:09:40;102708.25;;;13.98;67.19
67457;BME280;54319;52.038;4.640;2023-05-29T07:12:08;102699.44;;;14.03;67.34
67457;BME280;54319;52.038;4.640;2023-05-29T07:14:35;102707.13;;;14.08;65.71
67457;BME280;54319;52.038;4.640;2023-05-29T07:17:02;102695.28;;;14.22;65.30
67457;BME280;54319;52.038;4.640;2023-05-29T07:19:28;102710.25;;;14.56;65.81
67457;BME280;54319;52.038;4.640;2023-05-29T07:21:55;102713.53;;;14.82;65.58
67457;BME280;54319;52.038;4.640;2023-05-29T07:24:21;102710.59;;;15.05;62.87
67457;BME280;54319;52.038;4.640;2023-05-29T07:26:48;102713.19;;;15.35;62.23
67457;BME280;54319;52.038;4.640;2023-05-29T07:29:16;102712.50;;;15.55;63.00
67457;BME280;54319;52.038;4.640;2023-05-29T07:31:43;102727.47;;;15.74;59.94
67457;BME280;54319;52.038;4.640;2023-05-29T07:34:10;102716.25;;;15.75;58.61
67457;BME280;54319;52.038;4.640;2023-05-29T07:36:36;102718.81;;;15.84;58.07
67457;BME280;54319;52.038;4.640;2023-05-29T07:39:03;102718.31;;;15.95;57.77
67457;BME280;54319;52.038;4.640;2023-05-29T07:41:30;102718.91;;;16.26;57.00
67457;BME280;54319;52.038;4.640;2023-05-29T07:43:57;102721.69;;;16.32;56.65
67457;BME280;54319;52.038;4.640;2023-05-29T07:46:25;102724.84;;;16.29;56.80
67457;BME280;54319;52.038;4.640;2023-05-29T07:48:52;102727.38;;;16.31;57.26
67457;BME280;54319;52.038;4.640;2023-05-29T07:51:18;102724.25;;;15.70;55.44
67457;BME280;54319;52.038;4.640;2023-05-29T07:53:45;102731.13;;;15.31;57.99
67457;BME280;54319;52.038;4.640;2023-05-29T07:56:12;102736.06;;;15.36;59.18
67457;BME280;54319;52.038;4.640;2023-05-29T07:58:39;102739.31;;;15.46;57.95
67457;BME280;54319;52.038;4.640;2023-05-29T08:01:06;102742.00;;;15.39;58.43
67457;BME280;54319;52.038;4.640;2023-05-29T08:03:34;102730.91;;;15.54;58.16
67457;BME280;54319;52.038;4.640;2023-05-29T08:06:02;102703.53;;;15.74;58.52
67457;BME280;54319;52.038;4.640;2023-05-29T08:08:28;102728.00;;;16.26;54.84
67457;BME280;54319;52.038;4.640;2023-05-29T08:10:55;102739.53;;;16.50;54.79
67457;BME280;54319;52.038;4.640;2023-05-29T08:13:22;102713.44;;;16.39;53.82
67457;BME280;54319;52.038;4.640;2023-05-29T08:15:48;102741.28;;;16.64;53.92
67457;BME280;54319;52.038;4.640;2023-05-29T08:18:15;102743.94;;;17.00;55.37
67457;BME280;54319;52.038;4.640;2023-05-29T08:20:43;102740.28;;;16.79;52.42
67457;BME280;54319;52.038;4.640;2023-05-29T08:23:10;102736.28;;;16.88;53.59
67457;BME280;54319;52.038;4.640;2023-05-29T08:25:36;102742.09;;;17.34;52.06
67457;BME280;54319;52.038;4.640;2023-05-29T08:28:03;102759.72;;;17.46;50.30
67457;BME280;54319;52.038;4.640;2023-05-29T08:30:30;102753.97;;;17.68;50.93
67457;BME280;54319;52.038;4.640;2023-05-29T08:32:56;102749.75;;;17.39;49.90
67457;BME280;54319;52.038;4.640;2023-05-29T08:35:23;102743.78;;;17.15;49.17
67457;BME280;54319;52.038;4.640;2023-05-29T08:37:51;102762.38;;;16.86;49.98
67457;BME280;54319;52.038;4.640;2023-05-29T08:40:18;102747.06;;;16.83;50.23
67457;BME280;54319;52.038;4.640;2023-05-29T08:42:47;102744.50;;;16.75;49.50
67457;BME280;54319;52.038;4.640;2023-05-29T08:45:14;102755.63;;;17.02;49.67
67457;BME280;54319;52.038;4.640;2023-05-29T08:47:41;102751.16;;;17.01;49.80
67457;BME280;54319;52.038;4.640;2023-05-29T08:50:08;102759.44;;;17.01;50.28
67457;BME280;54319;52.038;4.640;2023-05-29T08:52:36;102765.84;;;17.08;50.03
67457;BME280;54319;52.038;4.640;2023-05-29T08:55:06;102763.69;;;17.03;49.31
67457;BME280;54319;52.038;4.640;2023-05-29T08:57:34;102750.91;;;16.89;49.40
67457;BME280;54319;52.038;4.640;2023-05-29T09:00:03;102753.66;;;16.82;49.07
67457;BME280;54319;52.038;4.640;2023-05-29T09:02:37;102750.03;;;16.82;50.43
67457;BME280;54319;52.038;4.640;2023-05-29T09:05:04;102773.78;;;16.83;49.22
67457;BME280;54319;52.038;4.640;2023-05-29T09:07:31;102776.44;;;16.56;49.78
67457;BME280;54319;52.038;4.640;2023-05-29T09:09:59;102737.94;;;16.20;50.23
67457;BME280;54319;52.038;4.640;2023-05-29T09:12:27;102766.81;;;16.31;51.43
67457;BME280;54319;52.038;4.640;2023-05-29T09:14:53;102768.44;;;16.74;51.66
67457;BME280;54319;52.038;4.640;2023-05-29T09:17:20;102746.47;;;16.88;50.81
67457;BME280;54319;52.038;4.640;2023-05-29T09:19:47;102766.47;;;17.24;50.36
67457;BME280;54319;52.038;4.640;2023-05-29T09:22:14;102770.13;;;17.44;50.26
67457;BME280;54319;52.038;4.640;2023-05-29T09:24:43;102776.69;;;17.57;50.92
67457;BME280;54319;52.038;4.640;2023-05-29T09:27:12;102771.81;;;17.52;50.49
67457;BME280;54319;52.038;4.640;2023-05-29T09:29:41;102763.75;;;17.64;50.98
67457;BME280;54319;52.038;4.640;2023-05-29T09:32:09;102776.03;;;17.61;50.20
67457;BME280;54319;52.038;4.640;2023-05-29T09:34:36;102767.97;;;17.80;48.16
67457;BME280;54319;52.038;4.640;2023-05-29T09:37:03;102768.59;;;17.35;49.50
67457;BME280;54319;52.038;4.640;2023-05-29T09:39:34;102767.13;;;17.26;48.79
67457;BME280;54319;52.038;4.640;2023-05-29T09:42:01;102769.47;;;17.42;47.95
67457;BME280;54319;52.038;4.640;2023-05-29T09:44:28;102767.34;;;17.31;48.61
67457;BME280;54319;52.038;4.640;2023-05-29T09:46:59;102758.97;;;16.90;48.67
67457;BME280;54319;52.038;4.640;2023-05-29T09:49:28;102727.00;;;17.03;49.70
67457;BME280;54319;52.038;4.640;2023-05-29T09:51:57;102739.31;;;17.20;48.34
67457;BME280;54319;52.038;4.640;2023-05-29T09:54:27;102734.66;;;17.41;48.47
67457;BME280;54319;52.038;4.640;2023-05-29T09:56:56;102753.13;;;17.88;47.62
67457;BME280;54319;52.038;4.640;2023-05-29T09:59:25;102744.63;;;18.03;47.65
67457;BME280;54319;52.038;4.640;2023-05-29T10:02:02;102740.31;;;18.20;47.68
67457;BME280;54319;52.038;4.640;2023-05-29T10:04:30;102755.19;;;18.13;47.30
67457;BME280;54319;52.038;4.640;2023-05-29T10:07:00;102741.19;;;18.07;47.29
67457;BME280;54319;52.038;4.640;2023-05-29T10:09:30;102739.72;;;17.91;44.91
67457;BME280;54319;52.038;4.640;2023-05-29T10:12:00;102743.50;;;18.17;45.81
67457;BME280;54319;52.038;4.640;2023-05-29T10:14:30;102743.06;;;18.27;46.27
67457;BME280;54319;52.038;4.640;2023-05-29T10:17:02;102747.63;;;18.47;46.16
67457;BME280;54319;52.038;4.640;2023-05-29T10:19:49;102686.84;;;18.01;46.32
67457;BME280;54319;52.038;4.640;2023-05-29T10:22:27;102719.88;;;18.28;43.89
67457;BME280;54319;52.038;4.640;2023-05-29T10:24:56;102745.66;;;18.68;45.93
67457;BME280;54319;52.038;4.640;2023-05-29T10:27:23;102756.69;;;18.68;46.27
67457;BME280;54319;52.038;4.640;2023-05-29T10:29:52;102743.97;;;18.60;46.56
67457;BME280;54319;52.038;4.640;2023-05-29T10:32:31;102747.34;;;18.69;46.21
67457;BME280;54319;52.038;4.640;2023-05-29T10:35:05;102752.59;;;18.77;44.49
67457;BME280;54319;52.038;4.640;2023-05-29T10:37:39;102752.06;;;18.93;44.92
67457;BME280;54319;52.038;4.640;2023-05-29T10:40:08;102746.03;;;18.71;43.55
67457;BME280;54319;52.038;4.640;2023-05-29T10:42:41;102739.22;;;18.74;44.66
67457;BME280;54319;52.038;4.640;2023-05-29T10:45:08;102747.09;;;19.16;45.82
67457;BME280;54319;52.038;4.640;2023-05-29T10:47:36;102740.28;;;19.12;44.51
67457;BME280;54319;52.038;4.640;2023-05-29T10:50:04;102738.41;;;19.37;41.99
67457;BME280;54319;52.038;4.640;2023-05-29T10:52:31;102735.72;;;18.99;43.21
67457;BME280;54319;52.038;4.640;2023-05-29T10:54:57;102743.34;;;18.97;43.57
67457;BME280;54319;52.038;4.640;2023-05-29T10:57:25;102731.34;;;18.77;42.74
67457;BME280;54319;52.038;4.640;2023-05-29T11:00:08;102716.94;;;18.69;43.48
67457;BME280;54319;52.038;4.640;2023-05-29T11:02:40;102729.28;;;19.05;44.18
67457;BME280;54319;52.038;4.640;2023-05-29T11:05:23;102737.38;;;19.32;42.73
67457;BME280;54319;52.038;4.640;2023-05-29T11:08:01;102735.28;;;19.52;43.16
67457;BME280;54319;52.038;4.640;2023-05-29T11:10:56;102738.03;;;19.02;44.86
67457;BME280;54319;52.038;4.640;2023-05-29T11:13:24;102730.06;;;19.63;43.40
67457;BME280;54319;52.038;4.640;2023-05-29T11:16:13;102713.63;;;19.93;43.28
67457;BME280;54319;52.038;4.640;2023-05-29T11:18:43;102722.69;;;20.19;42.83
67457;BME280;54319;52.038;4.640;2023-05-29T11:21:33;102736.38;;;20.51;41.76
67457;BME280;54319;52.038;4.640;2023-05-29T11:24:03;102685.16;;;19.61;42.97
67457;BME280;54319;52.038;4.640;2023-05-29T11:26:30;102696.44;;;20.03;43.43
67457;BME280;54319;52.038;4.640;2023-05-29T11:28:59;102740.22;;;20.50;43.73
67457;BME280;54319;52.038;4.640;2023-05-29T11:31:27;102731.00;;;20.87;41.48
67457;BME280;54319;52.038;4.640;2023-05-29T11:33:59;102733.63;;;20.82;41.35
67457;BME280;54319;52.038;4.640;2023-05-29T11:36:26;102745.06;;;21.04;40.56
67457;BME280;54319;52.038;4.640;2023-05-29T11:38:53;102735.63;;;20.75;39.66
67457;BME280;54319;52.038;4.640;2023-05-29T11:41:20;102739.66;;;20.79;40.20
67457;BME280;54319;52.038;4.640;2023-05-29T11:43:56;102732.09;;;20.86;40.09
67457;BME280;54319;52.038;4.640;2023-05-29T11:46:23;102732.78;;;20.63;39.54
67457;BME280;54319;52.038;4.640;2023-05-29T11:48:52;102723.41;;;20.64;40.51
67457;BME280;54319;52.038;4.640;2023-05-29T11:51:20;102738.97;;;20.65;39.10
67457;BME280;54319;52.038;4.640;2023-05-29T11:53:47;102740.28;;;20.62;40.20
67457;BME280;54319;52.038;4.640;2023-05-29T11:56:14;102740.19;;;20.69;39.75
67457;BME280;54319;52.038;4.640;2023-05-29T11:58:42;102739.19;;;20.63;40.10
67457;BME280;54319;52.038;4.640;2023-05-29T12:01:09;102738.09;;;20.83;39.46
67457;BME280;54319;52.038;4.640;2023-05-29T12:03:40;102747.78;;;20.74;39.21
67457;BME280;54319;52.038;4.640;2023-05-29T12:06:08;102720.41;;;20.65;39.47
67457;BME280;54319;52.038;4.640;2023-05-29T12:08:37;102738.25;;;21.00;40.36
67457;BME280;54319;52.038;4.640;2023-05-29T12:11:04;102741.81;;;21.19;38.21
67457;BME280;54319;52.038;4.640;2023-05-29T12:13:31;102744.56;;;20.77;39.46
67457;BME280;54319;52.038;4.640;2023-05-29T12:16:00;102736.34;;;20.70;38.85
67457;BME280;54319;52.038;4.640;2023-05-29T12:18:28;102735.88;;;21.04;40.33
67457;BME280;54319;52.038;4.640;2023-05-29T12:20:57;102721.03;;;21.10;39.01
67457;BME280;54319;52.038;4.640;2023-05-29T12:23:25;102735.81;;;20.61;38.90
67457;BME280;54319;52.038;4.640;2023-05-29T12:25:53;102721.47;;;20.15;39.39
67457;BME280;54319;52.038;4.640;2023-05-29T12:28:20;102721.16;;;20.05;40.06
67457;BME280;54319;52.038;4.640;2023-05-29T12:30:48;102711.66;;;20.50;40.23
67457;BME280;54319;52.038;4.640;2023-05-29T12:33:25;102712.69;;;20.86;40.05
67457;BME280;54319;52.038;4.640;2023-05-29T12:35:53;102696.78;;;20.93;38.25
67457;BME280;54319;52.038;4.640;2023-05-29T12:38:22;102679.19;;;20.69;37.88
67457;BME280;54319;52.038;4.640;2023-05-29T12:40:48;102699.22;;;21.14;38.13
67457;BME280;54319;52.038;4.640;2023-05-29T12:43:18;102716.97;;;21.13;37.12
67457;BME280;54319;52.038;4.640;2023-05-29T12:45:44;102716.97;;;20.82;38.08
67457;BME280;54319;52.038;4.640;2023-05-29T12:48:11;102724.31;;;20.76;39.38
67457;BME280;54319;52.038;4.640;2023-05-29T12:50:38;102706.53;;;20.84;37.65
67457;BME280;54319;52.038;4.640;2023-05-29T12:53:06;102718.44;;;20.85;38.45
67457;BME280;54319;52.038;4.640;2023-05-29T12:55:34;102720.31;;;20.72;37.51